• Join FlightAware (Why Join?)
  • Login
  • US Flag 
04:21AM EDT


 

Airport Tracker/Info


-or-


 

Live Flight TrackerFlight Track Log ✈ GLA50E ✈ 21-Apr-2013 ✈ KDEN - KEAR

Flight Track Log - Related Links

Times and Time Zones

All times are in EDT time to prevent confusion due to time zone crossing. See the GLA50E flight status page for this flight to view local times or setup timezone preferences in your user account.

Time Position Orientation Groundspeed Altitude Reporting Facility
EDT Latitude Longitude Course Direction KTS MPH feet Rate Location/Type
09:19PM 39.8833 -104.4833 75° East 208 239 9,000  Level Denver TRACON
09:20PM 39.8667 -104.4000 105° East 251 289 9,100 900 Climbing Denver TRACON
09:21PM 39.8833 -104.3167 75° East 223 257 10,800 960 Climbing Denver TRACON
09:22PM 39.9167 -104.2333 62° Northeast 250 288 11,100 660 Climbing Denver TRACON
09:22PM 39.9333 -104.1667 72° East 250 288 12,100 1,260 Climbing Denver TRACON
09:23PM 39.9230 -104.1680 69° East  Level FlightAware Approximate
09:23PM 39.9319 -104.1453 95° East 240 276 12,600  Level Denver Center
09:24PM 39.9454 -104.0763 75° East  Level FlightAware Approximate
09:24PM 39.9539 -104.0556 72° East 243 280 13,100  Level Denver Center
09:25PM 39.9772 -103.9650 71° East 259 298 14,300 900 Climbing Denver Center
09:26PM 40.0019 -103.8789 69° East 242 278 15,000 840 Climbing Denver Center
09:27PM 40.0242 -103.7853 73° East 269 310 16,100 1,260 Climbing Denver Center
09:28PM 40.0411 -103.7033 75° East 225 259 17,700 1,140 Climbing Denver Center
09:29PM 40.0603 -103.6172 74° East 245 282 18,500 900 Climbing Denver Center
09:30PM 40.0822 -103.5303 72° East 249 287 19,600 900 Climbing Denver Center
09:31PM 40.0950 -103.4550 77° East 251 289 20,400 600 Climbing Denver Center
09:32PM 40.1158 -103.3475 76° East 261 300 20,900 240 Climbing Denver Center
09:33PM 40.1361 -103.2508 75° East 274 315 21,000  Climbing Denver Center
09:34PM 40.1617 -103.1344 74° East 282 325 21,000  Level Denver Center
09:35PM 40.1781 -103.0297 78° East 292 336 21,000 780 Level Denver Center
09:36PM 40.1958 -102.9322 77° East 274 315 22,700 900 Climbing Denver Center
09:37PM 40.2081 -102.8353 81° East 271 312 22,900 120 Climbing Denver Center
09:38PM 40.2281 -102.7308 76° East 293 337 23,100 60 Climbing Denver Center
09:39PM 40.2494 -102.5975 78° East 310 357 23,100 -60 Level Denver Center
09:41PM 40.2675 -102.4744 79° East 308 354 23,000 -60 Descending Denver Center
09:42PM 40.2853 -102.3536 79° East 304 350 23,000  Level Denver Center
09:43PM 40.3033 -102.2339 79° East 302 348 23,000  Level Denver Center
09:44PM 40.3164 -102.1306 81° East 303 349 23,000  Level Denver Center
09:45PM 40.3342 -102.0106 79° East 302 348 23,000  Level Denver Center
09:46PM 40.3417 -101.9231 84° East 304 350 23,000  Level Denver Center
09:47PM 40.3561 -101.7822 82° East 306 352 23,100 -60 Climbing Denver Center
09:48PM 40.3672 -101.6764 82° East 307 353 22,900 -60 Descending Denver Center
09:49PM 40.3750 -101.5861 84° East 312 359 23,000 60 Climbing Denver Center
09:50PM 40.3911 -101.4442 81° East 309 356 23,100  Climbing Denver Center
09:51PM 40.4003 -101.3347 84° East 315 362 23,000 -60 Descending Denver Center
09:52PM 40.4169 -101.2086 80° East 315 362 23,000  Level Denver Center
09:53PM 40.4300 -101.1008 81° East 314 361 23,000  Level Denver Center
09:54PM 40.4503 -100.9742 78° East 317 365 23,100  Climbing Denver Center
09:55PM 40.4678 -100.8653 78° East 319 367 23,000  Descending Denver Center
09:56PM 40.4831 -100.7342 81° East 327 376 23,100 -60 Climbing Denver Center
09:57PM 40.4956 -100.6250 81° East 321 369 22,900 -120 Descending Denver Center
09:58PM 40.5183 -100.5039 76° East 310 357 22,900  Level Denver Center
09:59PM 40.5347 -100.4006 78° East 304 350 22,900  Level Denver Center
10:00PM 40.5506 -100.2800 80° East 302 348 22,900 -360 Level Denver Center
10:01PM 40.5489 -100.1744 91° East 303 349 22,200 -1,620 Descending Denver Center
10:02PM 40.5408 -100.0517 95° East 303 349 19,600 -2,400 Descending Denver Center
10:03PM 40.5361 -99.9472 93° East 300 345 17,300 -2,400 Descending Denver Center
10:04PM 40.5228 -99.8447 100° East 291 335 14,700 -2,520 Descending Denver Center
10:05PM 40.5039 -99.7428 104° East 287 330 12,200 -2,400 Descending Denver Center
10:06PM 40.4847 -99.6447 104° East 281 323 9,800 -1,920 Descending Denver Center
10:07PM 40.4806 -99.5314 93° East 263 303 8,300 -1,140 Descending Denver Center
10:08PM 40.4931 -99.4417 80° East 261 300 7,500 -660 Descending Denver Center
10:10PM 40.5239 -99.3569 64° Northeast 258 297 7,000 -540 Descending Denver Center
10:11PM 40.5561 -99.2717 64° Northeast 260 299 6,500 -660 Descending Denver Center
10:12PM 40.5861 -99.1853 65° Northeast 261 300 5,700 -1,080 Descending Denver Center
10:13PM 40.6158 -99.0994 65° Northeast 260 299 4,400 -1,380 Descending Denver Center
10:13PM 40.6269 -99.0667 66° East 259 298 3,900 -840 Descending Minneapolis Center
10:14PM 40.6619 -99.0208 45° Northeast 215 247 3,300 -720 Descending Minneapolis Center
10:15PM 40.7050 -99.0125 North 178 205 2,500 -840 Descending Minneapolis Center